createdAt,value
2023-05-14T00:01:33.615Z,38.00
2023-05-14T00:04:00.962Z,38.10
2023-05-14T00:06:28.083Z,38.10
2023-05-14T00:08:55.326Z,38.00
2023-05-14T00:11:22.322Z,38.00
2023-05-14T00:13:50.246Z,38.00
2023-05-14T00:16:17.436Z,38.00
2023-05-14T00:18:44.478Z,38.10
2023-05-14T00:21:11.676Z,38.10
2023-05-14T00:23:38.787Z,38.00
2023-05-14T00:26:05.826Z,37.90
2023-05-14T00:28:32.751Z,37.90
2023-05-14T00:30:59.746Z,37.80
2023-05-14T00:33:26.852Z,37.70
2023-05-14T00:35:53.828Z,37.70
2023-05-14T00:38:20.855Z,37.20
2023-05-14T00:40:51.799Z,36.90
2023-05-14T00:43:21.107Z,36.80
2023-05-14T00:45:56.099Z,37.00
2023-05-14T00:48:24.295Z,36.90
2023-05-14T00:50:51.708Z,37.30
2023-05-14T00:53:19.594Z,37.70
2023-05-14T00:55:48.908Z,37.90
2023-05-14T00:58:15.865Z,37.80
2023-05-14T01:00:42.891Z,37.80
2023-05-14T01:03:10.062Z,37.80
2023-05-14T01:05:46.476Z,37.50
2023-05-14T01:08:18.486Z,37.60
2023-05-14T01:11:19.578Z,37.90
2023-05-14T01:14:00.202Z,38.10
2023-05-14T01:16:29.604Z,38.20
2023-05-14T01:18:58.974Z,38.20
2023-05-14T01:21:35.404Z,38.20
2023-05-14T01:24:02.355Z,38.20
2023-05-14T01:26:31.405Z,38.30
2023-05-14T01:29:26.962Z,38.10
2023-05-14T01:31:55.797Z,38.00
2023-05-14T01:34:24.582Z,37.80
2023-05-14T01:36:53.626Z,37.90
2023-05-14T01:39:21.537Z,37.60
2023-05-14T01:41:49.611Z,37.20
2023-05-14T01:44:17.636Z,37.60
2023-05-14T01:46:44.617Z,37.70
2023-05-14T01:49:11.585Z,37.80
2023-05-14T01:51:38.611Z,37.70
2023-05-14T01:54:05.712Z,37.60
2023-05-14T01:56:32.805Z,37.70
2023-05-14T01:59:00.141Z,37.50
2023-05-14T02:01:27.164Z,37.50
2023-05-14T02:03:54.305Z,37.40
2023-05-14T02:06:22.985Z,37.50
2023-05-14T02:08:49.972Z,37.60
2023-05-14T02:11:16.998Z,37.50
2023-05-14T02:13:44.044Z,37.70
2023-05-14T02:16:11.168Z,37.70
2023-05-14T02:18:38.228Z,37.30
2023-05-14T02:21:05.333Z,37.10
2023-05-14T02:23:41.084Z,37.00
2023-05-14T02:26:10.781Z,37.10
2023-05-14T02:28:37.936Z,37.10
2023-05-14T02:31:05.130Z,37.20
2023-05-14T02:33:32.245Z,37.10
2023-05-14T02:35:59.218Z,37.00
2023-05-14T02:38:26.772Z,36.80
2023-05-14T02:40:53.821Z,36.70
2023-05-14T02:43:20.863Z,36.50
2023-05-14T02:45:47.886Z,36.70
2023-05-14T02:48:14.926Z,36.70
2023-05-14T02:50:41.976Z,36.80
2023-05-14T02:53:09.107Z,37.00
2023-05-14T02:55:36.564Z,37.00
2023-05-14T02:58:03.528Z,36.60
2023-05-14T03:00:30.595Z,36.40
2023-05-14T03:02:58.136Z,36.10
2023-05-14T03:05:25.597Z,36.00
2023-05-14T03:07:53.770Z,36.20
2023-05-14T03:10:20.914Z,36.40
2023-05-14T03:12:48.202Z,36.70
2023-05-14T03:15:16.672Z,36.70
2023-05-14T03:17:43.712Z,36.90
2023-05-14T03:20:11.418Z,37.10
2023-05-14T03:22:38.553Z,36.70
2023-05-14T03:25:06.106Z,36.90
2023-05-14T03:27:33.764Z,37.20
2023-05-14T03:30:00.986Z,37.10
2023-05-14T03:32:28.437Z,37.20
2023-05-14T03:34:55.770Z,37.40
2023-05-14T03:37:23.187Z,37.50
2023-05-14T03:39:50.238Z,37.30
2023-05-14T03:42:17.217Z,37.50
2023-05-14T03:44:44.343Z,37.60
2023-05-14T03:47:11.806Z,37.70
2023-05-14T03:49:38.783Z,37.80
2023-05-14T03:52:06.071Z,37.90
2023-05-14T03:54:33.175Z,37.90
2023-05-14T03:57:00.120Z,37.80
2023-05-14T03:59:27.039Z,37.80
2023-05-14T04:01:54.356Z,37.80
2023-05-14T04:04:21.318Z,37.40
2023-05-14T04:06:48.281Z,37.60
2023-05-14T04:09:15.422Z,37.70
2023-05-14T04:11:42.340Z,38.00
2023-05-14T04:14:09.414Z,38.10
2023-05-14T04:16:36.499Z,38.20
2023-05-14T04:19:05.096Z,38.30
2023-05-14T04:21:32.287Z,38.40
2023-05-14T04:23:59.273Z,38.50
2023-05-14T04:26:26.385Z,38.70
2023-05-14T04:28:53.548Z,38.70
2023-05-14T04:31:20.692Z,38.80
2023-05-14T04:33:48.006Z,38.70
2023-05-14T04:36:19.003Z,38.80
2023-05-14T04:38:46.028Z,38.90
2023-05-14T04:41:12.951Z,39.00
2023-05-14T04:43:40.372Z,39.10
2023-05-14T04:46:07.504Z,39.00
2023-05-14T04:48:34.525Z,38.50
2023-05-14T04:51:01.434Z,38.50
2023-05-14T04:53:28.394Z,38.80
2023-05-14T04:55:55.463Z,38.60
2023-05-14T04:58:24.174Z,38.60
2023-05-14T05:00:51.303Z,38.70
2023-05-14T05:03:18.375Z,38.90
2023-05-14T05:05:45.459Z,39.10
2023-05-14T05:08:12.474Z,38.90
2023-05-14T05:10:39.479Z,39.00
2023-05-14T05:13:06.432Z,39.10
2023-05-14T05:15:33.445Z,38.80
2023-05-14T05:18:00.918Z,39.10
2023-05-14T05:20:28.350Z,38.90
2023-05-14T05:22:55.414Z,38.40
2023-05-14T05:25:22.593Z,38.20
2023-05-14T05:27:49.559Z,38.20
2023-05-14T05:30:16.597Z,38.80
2023-05-14T05:32:43.875Z,38.90
2023-05-14T05:35:10.927Z,38.70
2023-05-14T05:37:37.883Z,36.90
2023-05-14T05:40:06.456Z,38.00
2023-05-14T05:42:33.478Z,38.40
2023-05-14T05:45:00.524Z,37.90
2023-05-14T05:47:27.558Z,37.60
2023-05-14T05:49:54.511Z,37.60
2023-05-14T05:52:21.568Z,38.50
2023-05-14T05:54:48.567Z,38.40
2023-05-14T05:57:15.546Z,38.80
2023-05-14T05:59:42.541Z,38.60
2023-05-14T06:02:09.639Z,39.30
2023-05-14T06:04:36.642Z,38.90
2023-05-14T06:07:03.774Z,39.70
2023-05-14T06:09:30.838Z,39.60
2023-05-14T06:11:57.791Z,40.10
2023-05-14T06:14:25.271Z,40.50
2023-05-14T06:16:52.371Z,40.70
2023-05-14T06:19:19.510Z,40.60
2023-05-14T06:21:46.477Z,40.50
2023-05-14T06:24:13.474Z,40.60
2023-05-14T06:26:40.514Z,40.60
2023-05-14T06:29:07.695Z,41.10
2023-05-14T06:31:34.790Z,40.80
2023-05-14T06:34:01.860Z,41.80
2023-05-14T06:36:28.858Z,41.00
2023-05-14T06:38:55.902Z,40.90
2023-05-14T06:41:22.994Z,41.90
2023-05-14T06:43:50.055Z,41.30
2023-05-14T06:46:18.384Z,41.90
2023-05-14T06:48:48.483Z,42.60
2023-05-14T06:51:15.768Z,42.90
2023-05-14T06:53:42.839Z,42.00
2023-05-14T06:56:09.798Z,42.10
2023-05-14T06:58:36.779Z,41.70
2023-05-14T07:01:04.286Z,42.20
2023-05-14T07:03:31.290Z,42.70
2023-05-14T07:05:58.491Z,42.80
2023-05-14T07:08:25.856Z,43.80
2023-05-14T07:10:52.902Z,41.60
2023-05-14T07:13:19.825Z,43.10
2023-05-14T07:15:46.787Z,42.20
2023-05-14T07:18:14.474Z,42.10
2023-05-14T07:20:41.422Z,43.80
2023-05-14T07:23:08.587Z,43.40
2023-05-14T07:25:35.507Z,44.10
2023-05-14T07:28:02.521Z,45.00
2023-05-14T07:30:29.652Z,45.90
2023-05-14T07:32:56.909Z,45.60
2023-05-14T07:35:24.004Z,46.10
2023-05-14T07:37:51.082Z,46.80
2023-05-14T07:40:18.234Z,47.70
2023-05-14T07:42:45.266Z,46.50
2023-05-14T07:45:12.494Z,46.50
2023-05-14T07:47:41.017Z,46.10
2023-05-14T07:50:08.647Z,45.30
2023-05-14T07:52:35.954Z,45.80
2023-05-14T07:55:04.125Z,46.20
2023-05-14T07:57:31.241Z,47.50
2023-05-14T07:59:58.263Z,47.30
2023-05-14T08:02:25.545Z,46.70
2023-05-14T08:04:52.710Z,47.00
2023-05-14T08:07:19.858Z,47.60
2023-05-14T08:09:47.027Z,48.00
2023-05-14T08:12:14.326Z,47.30
2023-05-14T08:14:42.045Z,46.90
2023-05-14T08:17:10.091Z,45.50
2023-05-14T08:19:37.173Z,45.30
2023-05-14T08:22:06.917Z,46.20
2023-05-14T08:24:35.565Z,46.10
2023-05-14T08:27:02.585Z,46.40
2023-05-14T08:29:29.639Z,45.60
2023-05-14T08:31:58.012Z,46.50
2023-05-14T08:34:25.576Z,45.50
2023-05-14T08:36:52.553Z,44.90
2023-05-14T08:39:19.588Z,43.80
2023-05-14T08:41:46.669Z,45.20
2023-05-14T08:44:17.823Z,44.90
2023-05-14T08:46:45.912Z,45.10
2023-05-14T08:49:35.890Z,44.50
2023-05-14T08:52:03.072Z,43.60
2023-05-14T08:54:33.661Z,44.80
2023-05-14T08:57:00.930Z,45.10
2023-05-14T08:59:28.603Z,45.60
2023-05-14T09:01:58.737Z,46.60
2023-05-14T09:04:26.585Z,47.20
2023-05-14T09:06:56.487Z,46.80
2023-05-14T09:09:24.953Z,46.80
2023-05-14T09:11:53.594Z,47.10
2023-05-14T09:14:21.198Z,47.40
2023-05-14T09:16:50.356Z,46.20
2023-05-14T09:19:22.627Z,44.50
2023-05-14T09:21:50.626Z,43.60
2023-05-14T09:24:31.763Z,42.70
2023-05-14T09:26:59.033Z,42.30
2023-05-14T09:29:30.239Z,43.60
2023-05-14T09:31:59.069Z,43.90
2023-05-14T09:34:28.471Z,43.90
2023-05-14T09:37:04.785Z,44.10
2023-05-14T09:39:33.700Z,43.40
2023-05-14T09:42:01.232Z,44.10
2023-05-14T09:44:28.921Z,44.10
2023-05-14T09:46:57.475Z,44.10
2023-05-14T09:49:24.567Z,43.40
2023-05-14T09:51:51.939Z,42.90
2023-05-14T09:54:18.997Z,42.10
2023-05-14T09:56:46.157Z,40.70
2023-05-14T09:59:13.336Z,39.70
2023-05-14T10:01:42.930Z,40.40
2023-05-14T10:04:11.318Z,41.50
2023-05-14T10:06:39.943Z,41.00
2023-05-14T10:09:13.071Z,41.00
2023-05-14T10:11:44.850Z,41.70
2023-05-14T10:14:25.365Z,42.20
2023-05-14T10:16:54.240Z,41.40
2023-05-14T10:19:25.224Z,40.80
2023-05-14T10:22:04.316Z,42.30
2023-05-14T10:24:32.659Z,41.20
2023-05-14T10:27:00.061Z,41.90
2023-05-14T10:29:37.809Z,41.10
2023-05-14T10:48:31.414Z,40.50
2023-05-14T10:50:58.687Z,39.80
2023-05-14T10:53:52.703Z,39.30
2023-05-14T10:56:20.083Z,38.80
2023-05-14T10:58:49.450Z,38.00
2023-05-14T11:01:16.499Z,39.20
2023-05-14T11:03:45.742Z,40.00
2023-05-14T11:06:15.190Z,41.00
2023-05-14T11:08:43.011Z,41.70
2023-05-14T11:11:11.019Z,42.50
2023-05-14T11:13:38.737Z,42.80
2023-05-14T11:18:40.939Z,42.90
2023-05-14T11:21:08.273Z,43.10
2023-05-14T11:23:35.260Z,43.70
2023-05-14T11:26:02.540Z,43.40
2023-05-14T11:28:30.156Z,43.40
2023-05-14T11:30:57.360Z,43.00
2023-05-14T11:33:25.032Z,43.20
2023-05-14T11:35:52.131Z,42.30
2023-05-14T11:38:20.533Z,41.60
2023-05-14T11:40:58.705Z,40.70
2023-05-14T11:43:30.146Z,37.30
2023-05-14T11:45:57.241Z,36.70
2023-05-14T11:48:24.684Z,36.60
2023-05-14T11:50:52.872Z,37.60
2023-05-14T11:53:31.003Z,37.60
2023-05-14T11:55:58.052Z,39.40
2023-05-14T11:58:25.568Z,39.80
2023-05-14T12:00:57.104Z,39.70
2023-05-14T12:03:29.811Z,40.60
2023-05-14T12:06:02.362Z,41.30
2023-05-14T12:08:31.374Z,42.50
2023-05-14T12:11:00.260Z,40.10
2023-05-14T12:13:29.324Z,40.90
2023-05-14T12:15:58.087Z,40.30
2023-05-14T12:18:27.115Z,39.90
2023-05-14T12:20:54.507Z,39.60
2023-05-14T12:23:29.355Z,39.90
2023-05-14T12:26:01.212Z,39.60
2023-05-14T12:28:28.798Z,40.90
2023-05-14T12:30:59.557Z,41.10
2023-05-14T12:33:28.159Z,42.10
2023-05-14T12:36:07.375Z,42.00
2023-05-14T12:38:37.892Z,42.50
2023-05-14T12:41:04.961Z,43.90
2023-05-14T12:43:32.297Z,43.50
2023-05-14T12:45:59.423Z,45.60
2023-05-14T12:48:26.713Z,46.70
2023-05-14T12:50:53.691Z,47.10
2023-05-14T12:53:20.820Z,47.60
2023-05-14T12:55:47.861Z,47.90
2023-05-14T12:58:14.844Z,48.00
2023-05-14T13:00:42.304Z,46.90
2023-05-14T13:03:09.357Z,45.70
2023-05-14T13:05:36.544Z,44.70
2023-05-14T13:08:04.166Z,43.40
2023-05-14T13:10:31.177Z,40.20
2023-05-14T13:12:58.331Z,39.10
2023-05-14T13:15:25.675Z,38.30
2023-05-14T13:17:53.026Z,35.40
2023-05-14T13:20:20.417Z,33.30
2023-05-14T13:22:47.566Z,31.90
2023-05-14T13:25:14.657Z,33.10
2023-05-14T13:27:41.685Z,33.30
2023-05-14T13:30:09.279Z,33.90
2023-05-14T13:32:36.487Z,34.20
2023-05-14T13:35:03.688Z,35.10
2023-05-14T13:37:32.530Z,36.60
2023-05-14T13:39:59.743Z,37.50
2023-05-14T13:42:27.243Z,37.70
2023-05-14T13:44:54.256Z,37.60
2023-05-14T13:47:21.355Z,38.40
2023-05-14T13:49:48.350Z,39.50
2023-05-14T13:52:15.405Z,39.80
2023-05-14T13:54:42.669Z,40.10
2023-05-14T13:57:09.605Z,40.80
2023-05-14T13:59:36.711Z,41.10
2023-05-14T14:02:04.134Z,40.60
2023-05-14T14:04:31.630Z,41.10
2023-05-14T14:06:58.600Z,41.60
2023-05-14T14:09:26.175Z,41.90
2023-05-14T14:11:53.353Z,42.30
2023-05-14T14:14:20.659Z,42.40
2023-05-14T14:16:47.909Z,42.60
2023-05-14T14:19:16.244Z,43.10
2023-05-14T14:21:44.848Z,43.60
2023-05-14T14:24:11.863Z,44.10
2023-05-14T14:26:38.810Z,44.00
2023-05-14T14:29:05.922Z,43.80
2023-05-14T14:31:33.216Z,44.50
2023-05-14T14:34:02.169Z,44.90
2023-05-14T14:36:30.730Z,45.60
2023-05-14T14:38:58.169Z,45.80
2023-05-14T14:41:25.154Z,46.20
2023-05-14T14:43:52.256Z,46.20
2023-05-14T14:46:19.499Z,45.50
2023-05-14T14:48:46.544Z,45.30
2023-05-14T14:51:13.740Z,45.10
2023-05-14T14:53:41.168Z,44.60
2023-05-14T14:56:08.228Z,43.90
2023-05-14T14:58:35.300Z,43.90
2023-05-14T15:01:02.490Z,43.90
2023-05-14T15:03:29.673Z,43.10
2023-05-14T15:05:56.897Z,43.60
2023-05-14T15:08:27.569Z,43.60
2023-05-14T15:10:55.252Z,43.70
2023-05-14T15:13:22.496Z,42.70
2023-05-14T15:15:51.299Z,43.40
2023-05-14T15:18:18.527Z,43.40
2023-05-14T15:20:46.227Z,43.70
2023-05-14T15:23:13.282Z,44.00
2023-05-14T15:25:40.251Z,43.70
2023-05-14T15:28:07.780Z,43.70
2023-05-14T15:30:35.078Z,43.60
2023-05-14T15:33:02.644Z,43.40
2023-05-14T15:35:29.694Z,43.00
2023-05-14T15:37:59.752Z,43.10
2023-05-14T15:40:27.704Z,42.90
2023-05-14T15:42:54.966Z,43.00
2023-05-14T15:45:22.645Z,42.80
2023-05-14T15:47:49.821Z,42.80
2023-05-14T15:50:16.922Z,42.40
2023-05-14T15:52:43.973Z,42.30
2023-05-14T15:55:11.148Z,41.90
2023-05-14T15:57:38.176Z,42.00
2023-05-14T16:00:12.176Z,42.10
2023-05-14T16:02:40.117Z,42.30
2023-05-14T16:05:08.653Z,42.10
2023-05-14T16:07:36.290Z,41.90
2023-05-14T16:10:04.232Z,41.90
2023-05-14T16:12:31.426Z,41.70
2023-05-14T16:14:58.754Z,41.60
2023-05-14T16:17:27.423Z,41.60
2023-05-14T16:19:56.266Z,41.50
2023-05-14T16:22:23.846Z,41.00
2023-05-14T16:24:51.082Z,40.80
2023-05-14T16:27:19.241Z,40.70
2023-05-14T16:29:53.628Z,40.80
2023-05-14T16:32:21.910Z,40.80
2023-05-14T16:34:52.116Z,41.00
2023-05-14T16:37:22.685Z,40.90
2023-05-14T16:39:50.240Z,40.80
2023-05-14T16:42:17.310Z,41.00
2023-05-14T16:44:44.460Z,41.00
2023-05-14T16:47:13.242Z,41.10
2023-05-14T16:49:40.185Z,41.10
2023-05-14T16:52:08.541Z,40.90
2023-05-14T16:54:35.659Z,41.00
2023-05-14T16:57:02.628Z,40.50
2023-05-14T16:59:29.654Z,40.40
2023-05-14T17:01:56.681Z,40.60
2023-05-14T17:04:27.500Z,40.30
2023-05-14T17:06:55.368Z,40.00
2023-05-14T17:09:22.537Z,40.20
2023-05-14T17:11:50.527Z,40.10
2023-05-14T17:14:17.968Z,40.10
2023-05-14T17:16:45.026Z,40.10
2023-05-14T17:19:12.160Z,40.10
2023-05-14T17:21:39.254Z,40.10
2023-05-14T17:24:06.479Z,40.30
2023-05-14T17:26:33.540Z,40.10
2023-05-14T17:29:00.650Z,40.10
2023-05-14T17:31:27.816Z,40.40
2023-05-14T17:33:54.886Z,40.40
2023-05-14T17:36:21.859Z,40.40
2023-05-14T17:38:49.002Z,40.20
2023-05-14T17:41:15.963Z,40.10
2023-05-14T17:43:46.253Z,40.10
2023-05-14T17:46:13.292Z,40.10
2023-05-14T17:48:40.987Z,39.40
2023-05-14T17:51:09.119Z,39.60
2023-05-14T17:53:36.233Z,39.90
2023-05-14T17:56:03.328Z,39.90
2023-05-14T17:58:31.076Z,40.10
2023-05-14T18:00:58.224Z,40.40
2023-05-14T18:03:25.464Z,40.50
2023-05-14T18:05:52.787Z,40.60
2023-05-14T18:08:19.827Z,40.60
2023-05-14T18:10:47.049Z,40.40
2023-05-14T18:13:14.490Z,40.10
2023-05-14T18:15:41.683Z,40.00
2023-05-14T18:18:08.724Z,40.10
2023-05-14T18:20:36.398Z,40.10
2023-05-14T18:23:03.641Z,40.10
2023-05-14T18:25:30.837Z,40.00
2023-05-14T18:27:57.908Z,39.80
2023-05-14T18:30:24.976Z,40.10
2023-05-14T18:32:52.177Z,40.20
2023-05-14T18:35:19.624Z,39.90
2023-05-14T18:37:46.757Z,40.10
2023-05-14T18:40:18.690Z,40.10
2023-05-14T18:42:46.148Z,40.10
2023-05-14T18:45:13.443Z,40.10
2023-05-14T18:47:41.133Z,40.20
2023-05-14T18:50:08.613Z,40.40
2023-05-14T18:52:35.723Z,40.40
2023-05-14T18:55:04.391Z,40.40
2023-05-14T18:57:33.998Z,40.30
2023-05-14T19:00:02.191Z,40.10
2023-05-14T19:02:29.335Z,40.10
2023-05-14T19:04:56.569Z,40.30
2023-05-14T19:07:26.449Z,40.30
2023-05-14T19:09:53.548Z,40.20
2023-05-14T19:12:20.632Z,40.30
2023-05-14T19:14:47.578Z,40.30
2023-05-14T19:17:14.870Z,40.30
2023-05-14T19:19:41.852Z,40.30
2023-05-14T19:22:08.819Z,40.30
2023-05-14T19:24:37.892Z,40.30
2023-05-14T19:27:05.207Z,40.30
2023-05-14T19:29:39.207Z,40.30
2023-05-14T19:32:06.918Z,40.30
2023-05-14T19:34:34.594Z,40.20
2023-05-14T19:37:01.827Z,40.10
2023-05-14T19:39:28.873Z,40.10
2023-05-14T19:41:56.166Z,39.90
2023-05-14T19:44:23.220Z,39.70
2023-05-14T19:46:50.762Z,39.60
2023-05-14T19:49:17.982Z,39.60
2023-05-14T19:51:45.074Z,39.40
2023-05-14T19:54:12.204Z,39.60
2023-05-14T19:56:39.617Z,39.50
2023-05-14T19:59:07.764Z,39.40
2023-05-14T20:01:34.943Z,38.90
2023-05-14T20:04:02.561Z,38.80
2023-05-14T20:06:29.738Z,38.30
2023-05-14T20:08:57.346Z,38.80
2023-05-14T20:11:24.406Z,39.30
2023-05-14T20:13:53.801Z,39.40
2023-05-14T20:16:21.258Z,39.40
2023-05-14T20:18:48.558Z,39.10
2023-05-14T20:21:15.846Z,39.40
2023-05-14T20:23:42.924Z,39.50
2023-05-14T20:26:09.990Z,39.60
2023-05-14T20:28:37.094Z,39.70
2023-05-14T20:31:04.383Z,39.70
2023-05-14T20:33:31.721Z,39.60
2023-05-14T20:35:58.830Z,39.30
2023-05-14T20:38:31.437Z,39.50
2023-05-14T20:40:58.540Z,39.40
2023-05-14T20:43:27.674Z,39.00
2023-05-14T20:45:58.638Z,39.00
2023-05-14T20:48:25.670Z,39.30
2023-05-14T20:50:52.597Z,39.30
2023-05-14T20:53:19.844Z,39.30
2023-05-14T20:55:46.851Z,38.90
2023-05-14T20:58:14.935Z,38.90
2023-05-14T21:00:41.975Z,39.10
2023-05-14T21:03:09.134Z,38.80
2023-05-14T21:05:36.316Z,39.00
2023-05-14T21:08:03.330Z,38.90
2023-05-14T21:10:30.347Z,38.70
2023-05-14T21:12:57.285Z,38.70
2023-05-14T21:15:27.475Z,38.40
2023-05-14T21:17:55.223Z,38.90
2023-05-14T21:20:22.195Z,39.10
2023-05-14T21:22:51.559Z,39.40
2023-05-14T21:25:18.755Z,39.50
2023-05-14T21:27:46.372Z,39.50
2023-05-14T21:30:15.109Z,39.50
2023-05-14T21:32:42.765Z,39.10
2023-05-14T21:35:10.191Z,39.40
2023-05-14T21:37:39.403Z,39.40
2023-05-14T21:40:12.592Z,39.40
2023-05-14T21:42:40.883Z,39.50
2023-05-14T21:45:08.221Z,39.30
2023-05-14T21:47:35.597Z,39.50
2023-05-14T21:50:02.699Z,39.50
2023-05-14T21:52:29.715Z,39.60
2023-05-14T21:54:56.751Z,39.40
2023-05-14T21:57:24.546Z,39.60
2023-05-14T21:59:52.524Z,39.70
2023-05-14T22:02:19.960Z,39.60
2023-05-14T22:04:47.036Z,39.40
2023-05-14T22:07:14.316Z,38.90
2023-05-14T22:09:41.757Z,38.60
2023-05-14T22:12:08.943Z,38.20
2023-05-14T22:14:36.119Z,37.70
2023-05-14T22:17:03.465Z,37.50
2023-05-14T22:19:31.401Z,37.70
2023-05-14T22:21:58.977Z,37.70
2023-05-14T22:24:26.390Z,37.80
2023-05-14T22:26:53.571Z,38.10
2023-05-14T22:29:20.626Z,37.90
2023-05-14T22:31:48.188Z,37.80
2023-05-14T22:34:15.455Z,37.70
2023-05-14T22:36:42.598Z,37.40
2023-05-14T22:39:11.489Z,37.40
2023-05-14T22:41:40.560Z,37.20
2023-05-14T22:44:07.691Z,36.90
2023-05-14T22:46:35.127Z,37.20
2023-05-14T22:49:02.168Z,37.40
2023-05-14T22:51:29.477Z,37.00
2023-05-14T22:53:56.677Z,36.60
2023-05-14T22:56:23.785Z,36.70
2023-05-14T22:58:51.136Z,36.50
2023-05-14T23:01:18.204Z,36.80
2023-05-14T23:03:45.370Z,36.70
2023-05-14T23:06:14.574Z,36.50
2023-05-14T23:08:41.708Z,36.90
2023-05-14T23:11:08.843Z,36.70
2023-05-14T23:13:35.929Z,36.70
2023-05-14T23:16:03.906Z,36.90
2023-05-14T23:18:31.210Z,36.30
2023-05-14T23:20:58.475Z,35.90
2023-05-14T23:23:25.918Z,36.10
2023-05-14T23:25:53.947Z,36.00
2023-05-14T23:28:21.008Z,35.80
2023-05-14T23:30:48.106Z,35.90
2023-05-14T23:33:15.319Z,36.00
2023-05-14T23:35:43.756Z,36.00
2023-05-14T23:38:10.845Z,36.10
2023-05-14T23:40:37.975Z,36.10
2023-05-14T23:43:04.952Z,36.30
2023-05-14T23:45:32.016Z,36.50
2023-05-14T23:48:00.871Z,36.70
2023-05-14T23:50:28.256Z,36.70
2023-05-14T23:52:56.070Z,36.80
2023-05-14T23:55:23.487Z,36.80
2023-05-14T23:57:51.271Z,36.80
